Time;durP1;ratioP1;P1;durP2;ratioP2;P2;SDS_P1;SDS_P2;PMS_P1;PMS_P2;Temp;Humidity;BMP_temperature;BMP_pressure;BME280_temperature;BME280_humidity;BME280_pressure;Samples;Min_cycle;Max_cycle;Signal;HPM_P1;HPM_P2
2021/10/22 00:01:12;;;;;;;;;6.25;5.00;;;;;16.53;91.38;101546.56;5061349;28;46680;-80
2021/10/22 00:03:37;;;;;;;;;8.00;6.25;;;;;16.50;91.40;101546.78;5063916;28;46092;-80
2021/10/22 00:06:04;;;;;;;;;13.25;8.00;;;;;16.53;91.34;101546.56;5063480;28;45541;-80
2021/10/22 00:08:29;;;;;;;;;10.50;8.75;;;;;16.52;91.70;101554.66;5057712;28;45858;-79
2021/10/22 00:10:55;;;;;;;;;10.00;8.50;;;;;16.47;90.70;101555.06;5062103;28;45646;-80
2021/10/22 00:13:21;;;;;;;;;6.25;6.25;;;;;16.42;91.89;101547.41;5045236;28;47292;-80
2021/10/22 00:15:47;;;;;;;;;9.00;8.00;;;;;16.40;91.59;101551.16;5046801;28;45481;-78
2021/10/22 00:18:12;;;;;;;;;9.50;7.50;;;;;16.34;91.31;101548.97;5059806;28;45583;-78
2021/10/22 00:20:38;;;;;;;;;7.25;5.50;;;;;16.31;91.85;101554.53;5063763;28;45444;-77
2021/10/22 00:23:04;;;;;;;;;8.75;8.00;;;;;16.35;92.02;101556.00;5047481;28;48101;-77
2021/10/22 00:25:29;;;;;;;;;9.75;9.00;;;;;16.31;92.12;101552.72;5061320;28;45790;-77
2021/10/22 00:27:55;;;;;;;;;9.00;6.50;;;;;16.38;92.73;101555.78;5056762;28;45343;-78
2021/10/22 00:30:21;;;;;;;;;10.75;9.00;;;;;16.39;92.36;101555.63;5057089;28;45415;-77
2021/10/22 00:32:46;;;;;;;;;8.50;8.00;;;;;16.38;92.47;101553.13;5064331;28;45487;-79
2021/10/22 00:35:12;;;;;;;;;9.75;8.25;;;;;16.37;93.27;101560.25;5052832;28;45438;-79
2021/10/22 00:37:37;;;;;;;;;11.00;8.75;;;;;16.32;93.76;101561.56;5046368;28;45480;-79
2021/10/22 00:40:04;;;;;;;;;10.00;9.00;;;;;16.33;94.01;101556.13;5051880;28;45527;-79
2021/10/22 00:42:31;;;;;;;;;10.00;8.00;;;;;16.29;93.05;101553.84;5041537;28;46099;-79
2021/10/22 00:44:58;;;;;;;;;13.00;11.75;;;;;16.35;92.17;101556.88;5060186;28;45408;-79
2021/10/22 00:47:23;;;;;;;;;12.25;10.25;;;;;16.28;92.35;101549.47;5074946;27;45528;-79
2021/10/22 00:49:49;;;;;;;;;15.75;11.00;;;;;16.23;92.81;101565.81;5065348;28;45339;-80
2021/10/22 00:52:20;;;;;;;;;9.75;8.50;;;;;16.31;92.23;101566.06;5042310;28;47129;-79
2021/10/22 00:54:46;;;;;;;;;15.75;11.00;;;;;16.28;92.24;101563.66;5062042;28;45532;-79
2021/10/22 00:57:13;;;;;;;;;11.50;9.25;;;;;16.27;91.97;101553.09;5075209;28;45473;-79
2021/10/22 00:59:38;;;;;;;;;14.00;10.00;;;;;16.16;92.96;101561.94;5073336;28;45415;-79
2021/10/22 01:02:04;;;;;;;;;9.25;8.50;;;;;16.28;93.60;101560.13;5065937;28;45685;-79
2021/10/22 01:04:29;;;;;;;;;10.00;8.75;;;;;16.21;93.81;101557.09;5067124;28;45470;-79
2021/10/22 01:06:55;;;;;;;;;8.75;8.50;;;;;16.24;94.31;101556.84;5061818;28;45360;-79
2021/10/22 01:09:21;;;;;;;;;8.25;6.00;;;;;16.25;94.30;101566.53;5043108;28;45642;-79
2021/10/22 01:11:47;;;;;;;;;8.00;7.75;;;;;16.19;95.38;101572.38;5063660;28;45305;-79
2021/10/22 01:14:12;;;;;;;;;9.00;8.75;;;;;16.00;94.89;101564.94;5054696;28;45463;-79
2021/10/22 01:16:39;;;;;;;;;8.00;8.00;;;;;16.09;95.10;101569.56;5054677;28;45466;-79
2021/10/22 01:19:05;;;;;;;;;8.00;8.00;;;;;16.02;95.57;101560.31;5056702;28;45992;-79
2021/10/22 01:21:31;;;;;;;;;11.75;8.75;;;;;16.03;95.31;101567.34;5061730;28;45613;-80
2021/10/22 01:23:57;;;;;;;;;10.50;8.00;;;;;16.06;95.84;101568.94;5038308;28;45434;-79
2021/10/22 01:26:23;;;;;;;;;10.25;7.25;;;;;16.09;96.39;101571.38;5054260;28;45419;-79
2021/10/22 01:28:48;;;;;;;;;7.50;7.00;;;;;16.10;97.01;101575.75;5059401;28;45558;-79
2021/10/22 01:31:14;;;;;;;;;12.75;7.25;;;;;16.13;96.40;101570.16;5033169;28;46039;-79
2021/10/22 01:33:41;;;;;;;;;9.75;9.00;;;;;16.13;95.61;101580.81;5058015;28;45409;-79
2021/10/22 01:36:07;;;;;;;;;12.50;8.00;;;;;16.11;96.12;101572.13;5050094;28;45352;-79
2021/10/22 01:38:33;;;;;;;;;9.25;7.50;;;;;16.06;95.84;101571.59;5049025;28;45359;-79
2021/10/22 01:40:58;;;;;;;;;7.00;7.00;;;;;16.06;96.17;101575.13;5050043;28;45994;-79
2021/10/22 01:43:25;;;;;;;;;8.50;7.25;;;;;16.05;96.76;101572.56;5033273;28;45889;-79
2021/10/22 01:45:51;;;;;;;;;7.00;6.50;;;;;15.99;96.72;101571.25;5045390;28;45414;-79
2021/10/22 01:48:17;;;;;;;;;8.25;7.00;;;;;15.98;95.85;101582.84;5031786;28;45626;-79
2021/10/22 01:50:43;;;;;;;;;10.50;5.50;;;;;15.90;96.37;101584.41;5058833;28;46693;-79
2021/10/22 01:53:09;;;;;;;;;8.50;6.25;;;;;15.90;97.36;101585.25;5037235;28;46005;-79
2021/10/22 01:55:35;;;;;;;;;9.50;7.00;;;;;15.93;97.04;101584.19;5057428;28;45489;-79
2021/10/22 01:58:02;;;;;;;;;5.00;5.00;;;;;15.96;96.99;101582.13;5060006;28;45456;-79
2021/10/22 02:00:28;;;;;;;;;8.25;7.00;;;;;15.95;97.42;101582.22;5054001;28;45861;-79
2021/10/22 02:02:54;;;;;;;;;9.50;8.75;;;;;15.83;96.15;101584.03;5056504;28;45157;-79
2021/10/22 02:05:19;;;;;;;;;11.50;7.25;;;;;15.82;97.53;101582.34;5051359;28;45236;-79
2021/10/22 02:07:44;;;;;;;;;8.00;8.00;;;;;15.84;97.49;101579.56;5051681;28;45395;-79
2021/10/22 02:10:10;;;;;;;;;10.00;9.00;;;;;15.79;98.25;101577.25;5035470;28;47270;-79
2021/10/22 02:12:36;;;;;;;;;9.75;7.25;;;;;15.83;97.62;101578.72;5054547;28;45414;-79
2021/10/22 02:15:02;;;;;;;;;7.00;7.00;;;;;15.80;97.59;101583.41;5040470;28;45416;-79
2021/10/22 02:17:27;;;;;;;;;8.50;7.00;;;;;15.79;97.04;101592.38;5067580;28;45529;-79
2021/10/22 02:19:52;;;;;;;;;6.50;6.50;;;;;15.76;96.63;101579.28;5058621;28;45599;-79
2021/10/22 02:22:18;;;;;;;;;8.00;6.50;;;;;15.75;97.60;101578.41;5049251;28;45445;-79
2021/10/22 02:24:43;;;;;;;;;7.75;7.75;;;;;15.69;97.30;101578.91;5036521;28;45635;-79
2021/10/22 02:27:09;;;;;;;;;12.25;9.00;;;;;15.73;97.28;101572.38;5041273;28;45637;-79
2021/10/22 02:29:35;;;;;;;;;14.00;9.00;;;;;15.74;97.50;101575.91;5029019;28;45634;-79
2021/10/22 02:32:00;;;;;;;;;5.00;5.00;;;;;15.75;97.51;101578.41;5014657;28;45619;-79
2021/10/22 02:34:25;;;;;;;;;8.50;8.00;;;;;15.88;96.99;101573.03;5029904;28;45486;-79
2021/10/22 02:36:51;;;;;;;;;7.25;7.00;;;;;15.84;97.69;101575.06;5029539;28;45463;-79
2021/10/22 02:39:17;;;;;;;;;8.50;7.00;;;;;15.87;96.96;101566.00;5032380;28;45495;-79
2021/10/22 02:41:45;;;;;;;;;6.25;5.00;;;;;15.88;96.50;101571.22;5029935;28;45403;-79
2021/10/22 02:44:10;;;;;;;;;8.00;8.00;;;;;15.85;95.74;101562.59;5008457;28;45311;-79
2021/10/22 02:46:36;;;;;;;;;9.75;6.50;;;;;15.85;96.17;101570.59;5031616;28;45470;-79
2021/10/22 02:49:01;;;;;;;;;6.75;5.00;;;;;15.75;95.86;101574.94;5008353;28;47302;-79
2021/10/22 02:51:28;;;;;;;;;5.50;4.00;;;;;15.73;95.53;101572.38;5021533;28;45420;-79
2021/10/22 02:53:54;;;;;;;;;7.75;4.75;;;;;15.75;95.59;101572.28;5037492;28;45397;-79
2021/10/22 02:56:19;;;;;;;;;8.50;4.00;;;;;15.59;96.78;101581.41;5029671;28;45317;-79
2021/10/22 02:58:44;;;;;;;;;6.50;6.50;;;;;15.60;97.09;101582.25;5017644;28;47285;-79
2021/10/22 03:01:10;;;;;;;;;8.75;4.00;;;;;15.78;97.57;101585.34;5036605;28;45674;-79
2021/10/22 03:03:35;;;;;;;;;3.00;3.00;;;;;15.62;97.37;101577.66;5016468;28;45562;-79
2021/10/22 03:06:00;;;;;;;;;6.25;4.25;;;;;15.65;97.27;101585.44;5033058;28;45364;-78
2021/10/22 03:08:26;;;;;;;;;6.50;4.75;;;;;15.57;97.78;101583.31;5015871;28;47707;-79
2021/10/22 03:10:51;;;;;;;;;5.00;5.00;;;;;15.62;98.21;101586.50;5035224;28;45369;-79
2021/10/22 03:13:16;;;;;;;;;6.25;3.75;;;;;15.64;97.49;101583.72;5045302;28;45320;-79
2021/10/22 03:15:42;;;;;;;;;5.00;4.00;;;;;15.60;98.12;101582.25;5037725;28;45645;-79
2021/10/22 03:18:07;;;;;;;;;4.00;4.00;;;;;15.56;97.14;101570.16;5021713;28;47008;-79
2021/10/22 03:20:33;;;;;;;;;4.25;3.25;;;;;15.66;96.70;101571.97;5042115;28;45626;-78
2021/10/22 03:22:58;;;;;;;;;3.50;3.50;;;;;15.51;96.83;101577.59;5062863;28;44738;-77
2021/10/22 03:25:24;;;;;;;;;4.25;3.50;;;;;15.63;96.27;101588.22;5060063;28;45332;-79
2021/10/22 03:27:51;;;;;;;;;3.75;3.50;;;;;15.53;96.51;101587.16;5060738;28;45438;-79
2021/10/22 03:30:16;;;;;;;;;3.00;3.00;;;;;15.53;97.13;101592.50;5062989;28;45785;-79
2021/10/22 03:32:42;;;;;;;;;7.00;4.25;;;;;15.55;97.51;101590.59;5037052;28;45473;-79
2021/10/22 03:35:08;;;;;;;;;3.25;3.25;;;;;15.56;97.12;101589.63;5037683;28;45511;-79
2021/10/22 03:37:33;;;;;;;;;5.00;5.00;;;;;15.56;97.36;101592.31;5056921;28;45535;-79
2021/10/22 03:39:58;;;;;;;;;8.00;4.00;;;;;15.55;97.03;101593.25;5033740;28;45427;-79
2021/10/22 03:42:24;;;;;;;;;3.75;3.75;;;;;15.50;96.36;101597.19;5067969;28;45438;-79
2021/10/22 03:44:49;;;;;;;;;8.50;4.25;;;;;15.45;96.35;101597.53;5069968;28;45422;-79
2021/10/22 03:47:14;;;;;;;;;3.25;3.25;;;;;15.39;97.90;101592.66;5066109;27;48331;-79
2021/10/22 03:49:40;;;;;;;;;4.75;3.00;;;;;15.46;96.28;101595.72;5043729;28;45448;-79
2021/10/22 03:52:06;;;;;;;;;8.50;3.00;;;;;15.55;96.01;101597.72;5063213;28;45343;-79
2021/10/22 03:54:31;;;;;;;;;6.25;4.00;;;;;15.49;95.21;101592.81;5069751;28;45242;-79
2021/10/22 03:56:57;;;;;;;;;5.00;3.25;;;;;15.43;95.55;101588.81;5066144;28;46015;-79
2021/10/22 03:59:22;;;;;;;;;4.00;3.00;;;;;15.42;94.63;101595.09;5038428;28;45424;-79
2021/10/22 04:01:50;;;;;;;;;2.50;2.50;;;;;15.30;94.01;101598.66;5065295;28;45261;-79
2021/10/22 04:04:16;;;;;;;;;6.50;3.25;;;;;15.27;94.37;101602.41;5062841;28;45354;-79
2021/10/22 04:06:41;;;;;;;;;3.00;2.00;;;;;15.28;95.02;101595.28;5062591;28;45553;-79
2021/10/22 04:09:08;;;;;;;;;3.00;2.00;;;;;15.22;95.77;101596.56;5057940;28;45480;-79
2021/10/22 04:11:33;;;;;;;;;3.50;3.00;;;;;15.27;95.96;101606.88;5060803;28;45442;-79
2021/10/22 04:14:01;;;;;;;;;2.00;2.00;;;;;15.20;96.76;101595.00;5075149;28;45391;-79
2021/10/22 04:16:26;;;;;;;;;3.00;3.00;;;;;15.23;97.02;101600.91;5055539;28;45501;-79
2021/10/22 04:18:52;;;;;;;;;2.50;2.50;;;;;15.26;97.25;101606.03;5059301;28;45445;-79
2021/10/22 04:21:17;;;;;;;;;2.50;2.50;;;;;15.36;97.12;101598.22;5053323;28;45473;-79
2021/10/22 04:23:42;;;;;;;;;3.00;3.00;;;;;15.34;96.98;101598.31;5073486;28;45458;-79
2021/10/22 04:26:08;;;;;;;;;3.50;3.25;;;;;15.30;97.28;101601.31;5072427;28;45491;-79
2021/10/22 04:28:33;;;;;;;;;3.75;2.25;;;;;15.16;97.56;101602.34;5069637;27;45203;-79
2021/10/22 04:30:59;;;;;;;;;3.00;3.00;;;;;15.07;98.29;101600.34;5069313;28;45335;-79
2021/10/22 04:33:24;;;;;;;;;4.00;2.00;;;;;15.08;97.94;101603.88;5048544;28;45621;-79
2021/10/22 04:35:50;;;;;;;;;3.00;3.00;;;;;14.93;98.32;101596.00;5046209;28;48069;-78
2021/10/22 04:40:48;;;;;;;;;4.00;3.00;;;;;15.04;99.02;101613.84;5068287;28;45537;-79
2021/10/22 04:43:15;;;;;;;;;3.50;2.00;;;;;15.06;99.58;101624.41;5062078;28;45326;-79
2021/10/22 04:45:42;;;;;;;;;4.25;2.75;;;;;15.12;99.30;101622.13;5042686;28;47330;-79
2021/10/22 04:48:11;;;;;;;;;3.50;2.75;;;;;15.27;98.95;101622.84;5059602;28;46683;-79
2021/10/22 04:50:42;;;;;;;;;2.75;2.00;;;;;15.24;98.28;101623.06;5043638;28;45255;-78
2021/10/22 04:53:08;;;;;;;;;7.00;3.00;;;;;15.28;98.85;101629.88;5061984;28;45446;-79
2021/10/22 04:55:34;;;;;;;;;5.25;4.25;;;;;15.26;97.77;101631.78;5056691;28;46929;-79
2021/10/22 04:58:00;;;;;;;;;3.00;3.00;;;;;15.39;97.21;101632.56;5055423;28;45851;-79
2021/10/22 05:00:25;;;;;;;;;6.00;2.25;;;;;15.28;98.21;101633.38;5061547;28;45503;-79
2021/10/22 05:02:51;;;;;;;;;7.75;4.25;;;;;15.31;97.76;101643.78;5068018;28;45567;-79
2021/10/22 05:05:16;;;;;;;;;8.00;2.50;;;;;15.41;97.66;101640.44;5046759;28;48357;-79
2021/10/22 05:07:42;;;;;;;;;2.00;2.00;;;;;15.20;96.91;101643.75;5054433;28;45408;-79
2021/10/22 05:10:08;;;;;;;;;4.50;2.00;;;;;15.29;96.57;101637.75;5061128;28;45320;-79
2021/10/22 05:12:34;;;;;;;;;2.00;2.00;;;;;15.34;96.44;101642.72;5075630;28;45270;-80
2021/10/22 05:15:00;;;;;;;;;3.00;3.00;;;;;15.33;97.87;101639.22;5047180;28;47052;-79
2021/10/22 05:17:25;;;;;;;;;4.00;4.00;;;;;15.31;97.83;101634.94;5054521;28;45216;-79
2021/10/22 05:19:52;;;;;;;;;10.50;2.75;;;;;15.34;97.54;101645.38;5040728;28;45504;-79
2021/10/22 05:22:17;;;;;;;;;7.75;3.00;;;;;15.34;96.92;101648.91;5056251;28;45452;-79
2021/10/22 05:24:43;;;;;;;;;2.00;1.00;;;;;15.28;96.50;101645.84;5046078;28;47327;-80
2021/10/22 05:27:08;;;;;;;;;3.75;3.00;;;;;15.26;95.33;101647.75;5059565;28;45446;-79
2021/10/22 05:29:34;;;;;;;;;5.00;3.00;;;;;15.21;94.85;101649.88;5065152;28;45408;-79
2021/10/22 05:31:59;;;;;;;;;5.25;2.75;;;;;15.22;96.10;101640.94;5072677;28;45684;-78
2021/10/22 05:34:24;;;;;;;;;1.00;1.00;;;;;15.18;95.53;101644.81;5069166;28;45442;-78
2021/10/22 05:36:52;;;;;;;;;1.00;1.00;;;;;15.21;93.32;101639.25;5044315;28;46000;-77
2021/10/22 05:39:19;;;;;;;;;1.50;1.50;;;;;15.25;92.98;101646.06;5054601;28;45363;-80
2021/10/22 05:41:46;;;;;;;;;2.00;2.00;;;;;15.13;92.79;101644.25;5052080;28;45324;-78
2021/10/22 05:44:12;;;;;;;;;2.75;1.50;;;;;14.97;93.24;101640.06;5023711;28;47227;-79
2021/10/22 05:46:37;;;;;;;;;3.00;1.25;;;;;14.99;93.86;101639.97;5035172;28;45437;-78
2021/10/22 05:49:03;;;;;;;;;1.25;1.25;;;;;14.86;94.31;101649.75;5034361;28;45735;-81
2021/10/22 05:51:28;;;;;;;;;2.50;2.50;;;;;14.83;96.09;101642.88;5029700;28;45625;-78
2021/10/22 05:53:55;;;;;;;;;5.50;3.00;;;;;14.80;95.47;101642.22;5037896;28;48112;-79
2021/10/22 05:56:21;;;;;;;;;2.75;2.75;;;;;14.94;95.72;101650.91;5069370;28;45482;-80
2021/10/22 05:58:46;;;;;;;;;1.50;1.00;;;;;14.98;94.80;101655.06;5042373;28;45478;-79
2021/10/22 06:01:11;;;;;;;;;1.25;1.25;;;;;14.87;93.31;101652.31;5069000;28;45694;-81
2021/10/22 06:03:37;;;;;;;;;1.50;1.50;;;;;14.76;93.40;101643.38;5040327;28;46936;-79
2021/10/22 06:06:02;;;;;;;;;3.00;1.00;;;;;14.78;94.36;101652.09;5067185;28;45461;-79
2021/10/22 06:08:28;;;;;;;;;5.50;2.00;;;;;14.62;93.94;101656.81;5068307;27;45411;-78
2021/10/22 06:10:53;;;;;;;;;1.50;1.00;;;;;14.43;93.82;101658.09;5074342;28;45332;-78
2021/10/22 06:13:20;;;;;;;;;3.00;1.00;;;;;14.44;94.94;101669.56;5064704;28;48415;-78
2021/10/22 06:15:46;;;;;;;;;2.25;2.00;;;;;14.45;94.92;101663.31;5042713;28;45569;-78
2021/10/22 06:18:14;;;;;;;;;3.75;2.75;;;;;14.40;94.92;101654.78;5039125;28;45404;-78
2021/10/22 06:20:46;;;;;;;;;2.50;1.50;;;;;14.39;95.36;101671.69;5055723;28;45459;-78
2021/10/22 06:25:42;;;;;;;;;2.25;2.00;;;;;14.41;95.63;101664.47;5065590;28;45449;-78
2021/10/22 06:28:10;;;;;;;;;2.75;2.00;;;;;14.45;95.19;101677.44;5050491;28;45400;-78
2021/10/22 06:30:37;;;;;;;;;2.25;1.50;;;;;14.39;95.76;101653.94;5056831;28;45553;-78
2021/10/22 06:33:02;;;;;;;;;4.50;2.00;;;;;14.47;96.22;101669.38;5066196;28;45420;-79
2021/10/22 06:35:28;;;;;;;;;3.50;3.00;;;;;14.40;96.88;101679.53;5054810;28;45461;-82
2021/10/22 06:37:55;;;;;;;;;3.25;2.00;;;;;14.37;96.37;101685.06;5034402;28;45391;-79
2021/10/22 06:40:21;;;;;;;;;3.50;2.00;;;;;14.36;95.41;101682.50;5056866;28;45507;-79
2021/10/22 06:42:47;;;;;;;;;2.25;2.25;;;;;14.35;95.37;101681.66;5048963;28;45704;-79
2021/10/22 06:45:13;;;;;;;;;3.00;3.00;;;;;14.49;96.06;101694.84;5026977;28;45708;-78
2021/10/22 06:47:39;;;;;;;;;2.00;2.00;;;;;14.62;95.32;101712.63;5058549;28;45303;-80
2021/10/22 06:50:06;;;;;;;;;6.50;2.00;;;;;14.59;95.91;101711.03;5058429;28;45451;-80
2021/10/22 06:52:31;;;;;;;;;3.50;2.50;;;;;14.66;96.17;101720.28;5056091;28;45589;-79
2021/10/22 06:54:56;;;;;;;;;2.00;2.00;;;;;14.71;96.76;101704.03;5053866;28;45371;-79
2021/10/22 06:57:23;;;;;;;;;4.75;3.00;;;;;14.84;95.82;101724.31;5039017;28;45708;-79
2021/10/22 06:59:48;;;;;;;;;4.00;3.00;;;;;14.83;97.01;101729.78;5040831;28;45427;-80
2021/10/22 07:02:14;;;;;;;;;5.25;2.50;;;;;14.77;96.76;101725.72;5038898;28;47139;-80
2021/10/22 07:04:47;;;;;;;;;6.50;3.25;;;;;14.71;94.90;101728.81;5038907;28;45321;-80
2021/10/22 07:07:16;;;;;;;;;3.00;3.00;;;;;14.69;94.39;101730.72;5054310;28;45462;-79
2021/10/22 07:09:46;;;;;;;;;4.25;3.00;;;;;14.77;95.55;101724.84;5046772;28;45950;-79
2021/10/22 07:12:13;;;;;;;;;4.75;3.00;;;;;14.77;96.34;101738.16;5060804;28;46287;-79
2021/10/22 07:14:48;;;;;;;;;4.75;3.75;;;;;14.77;95.43;101728.38;5069116;28;45514;-79
2021/10/22 07:17:15;;;;;;;;;4.25;3.25;;;;;14.91;95.27;101728.28;5049431;28;46320;-79
2021/10/22 07:19:40;;;;;;;;;3.75;3.75;;;;;14.91;95.23;101730.94;5071141;28;45497;-80
2021/10/22 07:22:12;;;;;;;;;4.75;4.00;;;;;14.94;94.48;101728.03;5043778;28;46404;-81
2021/10/22 07:24:38;;;;;;;;;3.25;2.00;;;;;15.02;94.55;101729.34;5063572;28;45695;-79
2021/10/22 07:27:04;;;;;;;;;3.50;3.50;;;;;15.04;95.06;101736.22;5030918;28;45395;-79
2021/10/22 07:29:29;;;;;;;;;3.50;3.00;;;;;15.06;95.03;101730.81;5074733;28;45380;-79
2021/10/22 07:31:56;;;;;;;;;3.50;3.00;;;;;15.13;94.35;101742.69;5071378;28;45390;-79
2021/10/22 07:34:22;;;;;;;;;4.00;4.00;;;;;15.15;93.55;101738.13;5061810;28;45344;-79
2021/10/22 07:36:49;;;;;;;;;4.25;3.00;;;;;15.26;93.18;101748.88;5067528;28;45608;-79
2021/10/22 07:39:16;;;;;;;;;2.25;2.25;;;;;15.33;90.23;101755.44;5067441;28;45427;-79
2021/10/22 07:41:42;;;;;;;;;5.00;3.00;;;;;15.42;93.21;101746.81;5057164;28;48119;-78
2021/10/22 07:44:07;;;;;;;;;5.50;3.00;;;;;15.64;92.40;101749.66;5034456;28;45470;-79
2021/10/22 07:46:33;;;;;;;;;6.50;3.50;;;;;15.78;90.04;101745.13;5065921;28;45791;-79
2021/10/22 07:48:58;;;;;;;;;7.00;3.00;;;;;16.23;92.21;101751.53;5050791;28;47138;-79
2021/10/22 07:51:24;;;;;;;;;3.50;2.50;;;;;17.37;92.04;101746.16;5038096;28;47221;-79
2021/10/22 07:53:50;;;;;;;;;5.00;3.50;;;;;18.55;78.86;101743.47;5056453;28;45458;-79
2021/10/22 07:56:16;;;;;;;;;4.00;3.00;;;;;19.65;80.32;101752.63;5054730;28;45378;-79
2021/10/22 07:58:42;;;;;;;;;5.00;4.00;;;;;20.75;80.22;101733.44;5055234;28;45170;-79
2021/10/22 08:01:08;;;;;;;;;3.50;3.50;;;;;21.82;79.03;101741.84;5034292;28;48637;-79
2021/10/22 08:03:34;;;;;;;;;2.75;2.75;;;;;22.63;67.97;101743.44;5048784;28;45193;-80
2021/10/22 08:06:03;;;;;;;;;4.50;3.75;;;;;23.26;69.69;101740.47;5039668;28;45181;-79
2021/10/22 08:08:30;;;;;;;;;6.00;3.00;;;;;24.08;67.43;101744.25;5039058;28;45656;-80
2021/10/22 08:10:56;;;;;;;;;4.25;2.25;;;;;24.83;66.41;101744.94;5026498;28;48252;-80
2021/10/22 08:13:21;;;;;;;;;5.50;3.50;;;;;25.43;57.24;101753.38;5042117;28;45327;-80
2021/10/22 08:15:47;;;;;;;;;2.50;2.50;;;;;25.96;59.84;101747.16;5027806;28;45344;-80
2021/10/22 08:18:13;;;;;;;;;3.75;2.00;;;;;26.44;58.54;101747.84;5038356;28;45470;-80
2021/10/22 08:20:46;;;;;;;;;5.00;2.00;;;;;26.96;53.36;101752.44;5030273;28;47281;-80
2021/10/22 08:23:12;;;;;;;;;5.50;4.00;;;;;27.38;48.72;101757.19;5040493;28;46224;-80
2021/10/22 08:25:37;;;;;;;;;4.50;4.50;;;;;27.75;46.38;101762.50;5058618;28;45394;-80
2021/10/22 08:28:03;;;;;;;;;8.75;5.00;;;;;28.09;51.81;101771.84;5062102;28;45539;-81
2021/10/22 08:30:29;;;;;;;;;5.75;4.00;;;;;28.29;47.53;101772.91;5056596;28;45866;-80
2021/10/22 08:32:56;;;;;;;;;4.25;3.00;;;;;27.46;46.90;101770.66;5038735;28;45425;-80
2021/10/22 08:35:28;;;;;;;;;5.25;3.00;;;;;26.64;47.09;101783.41;5031903;28;45582;-80
2021/10/22 08:37:54;;;;;;;;;3.00;3.00;;;;;27.00;46.75;101778.16;5043579;28;45518;-80
2021/10/22 08:40:21;;;;;;;;;3.00;3.00;;;;;27.25;42.79;101784.13;5061375;28;45489;-80
2021/10/22 08:42:48;;;;;;;;;4.00;2.25;;;;;27.89;45.82;101791.47;5060774;28;45352;-81
2021/10/22 08:45:15;;;;;;;;;4.00;2.00;;;;;28.55;45.48;101786.72;5061565;28;45542;-80
2021/10/22 08:47:41;;;;;;;;;3.00;2.75;;;;;28.93;39.33;101789.97;5060042;28;45411;-80
2021/10/22 08:50:10;;;;;;;;;3.00;3.00;;;;;28.95;39.99;101787.06;5045683;28;46592;-80
2021/10/22 08:52:36;;;;;;;;;5.75;4.00;;;;;29.08;41.28;101795.31;5052757;28;45039;-80
2021/10/22 08:55:07;;;;;;;;;3.50;3.00;;;;;29.36;42.36;101792.56;5050315;28;45412;-79
2021/10/22 08:57:33;;;;;;;;;4.25;4.00;;;;;29.64;41.24;101787.03;5064032;28;45243;-79
2021/10/22 09:00:00;;;;;;;;;3.25;3.25;;;;;30.16;41.15;101793.72;5074024;28;45365;-80
2021/10/22 09:02:28;;;;;;;;;7.00;3.00;;;;;29.52;41.56;101794.09;5061071;28;45281;-80
2021/10/22 09:05:09;;;;;;;;;5.00;4.00;;;;;29.08;39.60;101789.84;5050517;28;45481;-79
2021/10/22 09:07:52;;;;;;;;;4.50;3.25;;;;;29.51;41.64;101795.97;5044098;28;45425;-80
2021/10/22 09:10:20;;;;;;;;;6.25;5.00;;;;;30.02;39.37;101803.75;5028945;28;48361;-80
2021/10/22 09:12:53;;;;;;;;;5.25;3.75;;;;;30.33;38.63;101793.09;5065225;28;45426;-80
2021/10/22 09:15:25;;;;;;;;;7.00;3.75;;;;;30.61;36.46;101803.84;5044125;28;45400;-80
2021/10/22 09:17:53;;;;;;;;;2.75;2.75;;;;;30.82;37.38;101805.53;5066783;28;45466;-79
2021/10/22 09:20:21;;;;;;;;;4.25;4.25;;;;;31.02;38.05;101819.16;5050475;28;46547;-80
2021/10/22 09:22:56;;;;;;;;;5.75;3.00;;;;;30.85;34.37;101811.41;5061900;28;45519;-80
2021/10/22 09:25:24;;;;;;;;;6.00;4.00;;;;;31.06;38.84;101821.22;5046039;28;45466;-80
2021/10/22 09:27:56;;;;;;;;;5.75;4.00;;;;;31.18;36.71;101827.75;5042810;28;45443;-80
2021/10/22 09:30:41;;;;;;;;;4.75;2.25;;;;;30.96;35.62;101831.72;5045061;28;47617;-80
2021/10/22 09:33:20;;;;;;;;;4.25;2.50;;;;;30.54;35.48;101826.72;5040607;28;45811;-80
2021/10/22 09:35:54;;;;;;;;;4.50;2.25;;;;;30.02;36.72;101822.81;5058866;28;45405;-80
2021/10/22 09:38:27;;;;;;;;;2.50;2.50;;;;;29.68;36.66;101827.25;5037336;28;45463;-80
2021/10/22 09:41:05;;;;;;;;;5.75;3.00;;;;;29.37;38.35;101838.63;5055543;28;45438;-80
2021/10/22 09:43:37;;;;;;;;;5.00;3.25;;;;;29.00;37.05;101836.25;5050502;28;45387;-80
2021/10/22 09:46:16;;;;;;;;;3.00;2.00;;;;;28.60;38.15;101835.88;5054633;28;45392;-80
2021/10/22 09:48:43;;;;;;;;;2.50;2.00;;;;;28.20;39.64;101845.53;5047480;28;45679;-80
2021/10/22 09:51:29;;;;;;;;;3.00;2.00;;;;;27.80;39.02;101843.34;5051438;28;45329;-80
2021/10/22 09:53:57;;;;;;;;;4.00;4.00;;;;;27.48;39.93;101837.28;5045524;28;45335;-80
2021/10/22 09:56:26;;;;;;;;;1.25;1.25;;;;;27.22;40.75;101847.75;5046577;28;45430;-80
2021/10/22 09:59:06;;;;;;;;;5.00;2.00;;;;;26.76;39.71;101845.13;5043485;28;46010;-80
2021/10/22 10:01:41;;;;;;;;;1.75;1.75;;;;;26.39;40.93;101840.50;5054313;28;45669;-80
2021/10/22 10:04:11;;;;;;;;;3.75;2.00;;;;;26.19;41.79;101843.81;5041608;28;45748;-80
2021/10/22 10:06:39;;;;;;;;;2.25;1.00;;;;;25.99;42.11;101846.13;5048449;28;45325;-80
2021/10/22 10:09:08;;;;;;;;;2.75;2.75;;;;;25.89;43.39;101840.94;5058619;28;45356;-80
2021/10/22 10:11:33;;;;;;;;;5.00;4.00;;;;;25.96;42.11;101852.72;5049932;28;46387;-80
2021/10/22 10:14:02;;;;;;;;;3.00;1.25;;;;;25.82;41.76;101858.06;5052126;28;45409;-80
2021/10/22 10:16:33;;;;;;;;;4.50;4.00;;;;;25.48;43.15;101852.94;5060274;28;45362;-80
2021/10/22 10:19:23;;;;;;;;;3.50;3.25;;;;;25.63;43.11;101867.44;5056612;28;45407;-80
2021/10/22 10:21:50;;;;;;;;;5.75;2.00;;;;;25.50;44.76;101861.69;5056288;28;46713;-80
2021/10/22 10:24:22;;;;;;;;;5.25;3.25;;;;;25.85;44.25;101850.44;5041910;28;45419;-80
2021/10/22 10:27:23;;;;;;;;;7.00;3.00;;;;;25.96;43.71;101855.44;5041667;28;45619;-80
2021/10/22 10:29:52;;;;;;;;;5.25;2.00;;;;;25.82;43.68;101853.50;5021185;28;46178;-80
2021/10/22 10:32:20;;;;;;;;;4.00;3.75;;;;;25.75;45.02;101862.50;5060054;28;46559;-80
2021/10/22 10:34:50;;;;;;;;;4.25;3.00;;;;;25.89;44.58;101864.44;5054326;28;45386;-80
2021/10/22 10:37:29;;;;;;;;;3.75;2.00;;;;;25.94;44.15;101868.31;5048623;28;45515;-80
2021/10/22 10:39:58;;;;;;;;;2.25;2.25;;;;;25.90;44.77;101861.56;5035070;28;45439;-80
2021/10/22 10:42:32;;;;;;;;;2.50;2.50;;;;;25.90;44.46;101860.72;5027379;28;48182;-80
2021/10/22 10:44:59;;;;;;;;;3.00;3.00;;;;;25.89;42.80;101859.88;5041763;28;45490;-80
2021/10/22 10:47:27;;;;;;;;;3.00;3.00;;;;;25.82;44.46;101861.63;5065675;28;46109;-80
2021/10/22 10:49:53;;;;;;;;;2.00;2.00;;;;;25.73;42.81;101862.66;5059608;28;45383;-80
2021/10/22 10:52:37;;;;;;;;;3.25;3.00;;;;;25.75;42.49;101868.75;5040723;28;48513;-79
2021/10/22 10:55:29;;;;;;;;;4.00;2.75;;;;;25.76;44.17;101853.34;5058942;28;45378;-81
2021/10/22 10:58:07;;;;;;;;;6.75;2.50;;;;;25.85;43.70;101857.72;5056404;28;45335;-81
2021/10/22 11:00:46;;;;;;;;;4.00;2.75;;;;;25.87;44.54;101848.38;5066764;28;45387;-80
2021/10/22 11:03:22;;;;;;;;;5.25;4.00;;;;;25.94;44.44;101846.69;5068839;28;45437;-81
2021/10/22 11:05:52;;;;;;;;;5.25;4.00;;;;;25.95;43.55;101851.03;5042472;28;45411;-81
2021/10/22 11:08:18;;;;;;;;;5.00;3.25;;;;;25.85;42.39;101849.59;5059010;28;45460;-81
2021/10/22 11:11:06;;;;;;;;;2.50;2.50;;;;;25.48;41.80;101859.19;5053139;28;45332;-80
2021/10/22 11:13:51;;;;;;;;;3.00;2.50;;;;;25.50;42.46;101857.13;5031900;28;47976;-80
2021/10/22 11:16:20;;;;;;;;;3.00;2.25;;;;;25.22;42.62;101856.69;5066806;28;45354;-81
2021/10/22 11:19:06;;;;;;;;;1.50;1.50;;;;;25.28;42.53;101857.88;5060229;28;45440;-81
2021/10/22 11:21:53;;;;;;;;;1.50;1.50;;;;;25.06;42.46;101853.16;5056593;28;45434;-80
2021/10/22 11:24:30;;;;;;;;;3.00;2.00;;;;;25.06;44.14;101854.00;5033558;28;46148;-82
2021/10/22 11:26:57;;;;;;;;;3.00;3.00;;;;;25.37;44.13;101853.28;5036419;28;45453;-80
2021/10/22 11:29:23;;;;;;;;;4.50;3.25;;;;;25.93;43.63;101846.84;5064892;28;45895;-80
2021/10/22 11:31:56;;;;;;;;;3.00;2.50;;;;;26.07;42.26;101840.66;5059087;28;45473;-80